createdAt,value
2023-02-26T00:01:23.553Z,3.63
2023-02-26T00:03:56.030Z,4.40
2023-02-26T00:06:23.105Z,5.13
2023-02-26T00:08:49.954Z,6.33
2023-02-26T00:11:19.243Z,4.10
2023-02-26T00:13:46.566Z,5.00
2023-02-26T00:16:34.808Z,5.07
2023-02-26T00:19:06.376Z,3.93
2023-02-26T00:21:36.150Z,4.93
2023-02-26T00:24:03.182Z,4.13
2023-02-26T00:26:35.060Z,4.83
2023-02-26T00:29:04.891Z,4.47
2023-02-26T00:31:32.053Z,4.67
2023-02-26T00:33:59.302Z,4.57
2023-02-26T00:37:13.016Z,4.80
2023-02-26T00:39:39.769Z,5.13
2023-02-26T00:42:07.044Z,5.07
2023-02-26T00:44:36.636Z,4.40
2023-02-26T00:47:25.976Z,4.00
2023-02-26T00:50:16.830Z,3.53
2023-02-26T00:53:02.230Z,4.70
2023-02-26T00:55:29.680Z,4.03
2023-02-26T00:57:59.086Z,4.80
2023-02-26T01:00:25.889Z,5.20
2023-02-26T01:02:53.018Z,4.17
2023-02-26T01:05:20.376Z,4.80
2023-02-26T01:08:05.115Z,3.97
2023-02-26T01:10:34.515Z,4.60
2023-02-26T01:13:01.468Z,3.67
2023-02-26T01:15:30.822Z,4.33
2023-02-26T01:18:30.820Z,3.73
2023-02-26T01:21:00.408Z,4.97
2023-02-26T01:23:32.847Z,4.57
2023-02-26T01:26:01.160Z,4.00
2023-02-26T01:28:28.242Z,3.70
2023-02-26T01:30:58.086Z,4.13
2023-02-26T01:34:14.711Z,3.37
2023-02-26T01:36:54.517Z,6.37
2023-02-26T01:39:38.524Z,4.73
2023-02-26T01:42:23.551Z,5.03
2023-02-26T01:44:53.306Z,4.37
2023-02-26T01:47:29.066Z,5.23
2023-02-26T01:49:56.086Z,5.77
2023-02-26T01:52:35.180Z,4.60
2023-02-26T01:55:04.319Z,5.20
2023-02-26T01:57:33.337Z,5.03
2023-02-26T02:00:02.639Z,4.30
2023-02-26T02:02:29.547Z,4.73
2023-02-26T02:04:58.507Z,4.07
2023-02-26T02:07:25.306Z,4.40
2023-02-26T02:09:54.228Z,4.70
2023-02-26T02:12:39.361Z,5.10
2023-02-26T02:15:22.549Z,4.53
2023-02-26T02:18:01.162Z,4.50
2023-02-26T02:21:06.253Z,4.20
2023-02-26T02:23:40.168Z,4.93
2023-02-26T02:26:12.321Z,5.90
2023-02-26T02:29:06.894Z,4.33
2023-02-26T02:31:43.614Z,4.40
2023-02-26T02:34:15.368Z,4.57
2023-02-26T02:37:17.926Z,7.17
2023-02-26T02:39:46.140Z,5.73
2023-02-26T02:42:36.149Z,4.87
2023-02-26T02:45:19.716Z,5.23
2023-02-26T02:47:48.915Z,4.57
2023-02-26T02:50:25.566Z,5.13
2023-02-26T02:53:00.279Z,4.57
2023-02-26T02:55:29.593Z,5.17
2023-02-26T02:58:10.351Z,5.10
2023-02-26T03:00:41.413Z,5.33
2023-02-26T03:03:43.686Z,5.17
2023-02-26T03:06:10.536Z,5.73
2023-02-26T03:08:46.352Z,4.43
2023-02-26T03:11:15.633Z,4.77
2023-02-26T03:13:45.021Z,5.47
2023-02-26T03:16:53.529Z,4.87
2023-02-26T03:19:34.382Z,5.77
2023-02-26T03:22:07.042Z,5.13
2023-02-26T03:24:58.513Z,4.10
2023-02-26T03:27:39.197Z,4.30
2023-02-26T03:30:32.647Z,5.33
2023-02-26T03:33:23.110Z,4.43
2023-02-26T03:36:00.873Z,4.33
2023-02-26T03:38:33.000Z,5.53
2023-02-26T03:41:11.392Z,3.43
2023-02-26T03:43:45.618Z,4.37
2023-02-26T03:46:18.022Z,5.20
2023-02-26T03:48:48.128Z,5.13
2023-02-26T03:51:14.935Z,6.00
2023-02-26T03:53:49.323Z,6.13
2023-02-26T03:56:18.415Z,6.17
2023-02-26T03:58:45.499Z,4.90
2023-02-26T04:01:19.263Z,4.43
2023-02-26T04:03:52.314Z,3.93
2023-02-26T04:06:20.502Z,3.63
2023-02-26T04:08:47.640Z,3.70
2023-02-26T04:11:19.993Z,5.30
2023-02-26T04:13:50.614Z,5.67
2023-02-26T04:16:18.654Z,3.23
2023-02-26T04:18:45.596Z,3.90
2023-02-26T04:21:17.168Z,3.93
2023-02-26T04:23:43.945Z,3.63
2023-02-26T04:26:10.991Z,5.70
2023-02-26T04:28:38.011Z,4.67
2023-02-26T04:31:08.074Z,4.97
2023-02-26T04:33:37.102Z,4.67
2023-02-26T04:36:04.977Z,3.67
2023-02-26T04:38:34.007Z,3.87
2023-02-26T04:41:03.321Z,3.43
2023-02-26T04:43:30.181Z,3.50
2023-02-26T04:45:59.202Z,3.40
2023-02-26T04:48:25.947Z,4.13
2023-02-26T04:50:52.799Z,4.67
2023-02-26T04:53:19.549Z,4.07
2023-02-26T04:55:49.621Z,5.00
2023-02-26T04:58:19.641Z,3.90
2023-02-26T05:00:50.424Z,5.43
2023-02-26T05:03:17.540Z,4.43
2023-02-26T05:05:44.406Z,4.17
2023-02-26T05:08:13.408Z,3.97
2023-02-26T05:10:40.189Z,4.80
2023-02-26T05:13:06.986Z,5.43
2023-02-26T05:15:33.834Z,5.27
2023-02-26T05:18:00.622Z,3.97
2023-02-26T05:20:27.428Z,4.40
2023-02-26T05:22:56.761Z,4.80
2023-02-26T05:25:26.134Z,4.57
2023-02-26T05:27:53.044Z,3.67
2023-02-26T05:30:22.005Z,3.70
2023-02-26T05:32:53.192Z,4.27
2023-02-26T05:35:20.013Z,5.07
2023-02-26T05:37:49.025Z,4.63
2023-02-26T05:40:15.779Z,3.90
2023-02-26T05:42:45.172Z,4.50
2023-02-26T05:45:14.480Z,4.20
2023-02-26T05:47:43.770Z,4.10
2023-02-26T05:50:11.331Z,3.30
2023-02-26T05:52:38.147Z,4.93
2023-02-26T05:55:05.620Z,5.37
2023-02-26T05:57:32.425Z,3.30
2023-02-26T05:59:59.222Z,4.53
2023-02-26T06:02:29.059Z,5.73
2023-02-26T06:04:58.062Z,3.33
2023-02-26T06:07:27.094Z,2.03
2023-02-26T06:09:53.875Z,4.40
2023-02-26T06:12:20.662Z,3.00
2023-02-26T06:14:50.011Z,3.30
2023-02-26T06:17:16.775Z,4.03
2023-02-26T06:19:44.826Z,3.43
2023-02-26T06:22:11.601Z,3.93
2023-02-26T06:24:38.373Z,3.40
2023-02-26T06:27:05.235Z,2.03
2023-02-26T06:29:32.010Z,3.43
2023-02-26T06:31:58.876Z,3.40
2023-02-26T06:34:25.779Z,4.17
2023-02-26T06:36:52.523Z,3.93
2023-02-26T06:39:21.720Z,1.87
2023-02-26T06:41:48.518Z,2.30
2023-02-26T06:44:17.727Z,2.70
2023-02-26T06:46:44.507Z,3.63
2023-02-26T06:49:13.764Z,2.80
2023-02-26T06:51:40.716Z,3.20
2023-02-26T06:54:09.632Z,2.77
2023-02-26T06:56:36.418Z,4.07
2023-02-26T06:59:03.202Z,2.50
2023-02-26T07:01:31.843Z,5.00
2023-02-26T07:04:00.837Z,4.27
2023-02-26T07:06:28.229Z,2.57
2023-02-26T07:08:55.461Z,4.07
2023-02-26T07:11:25.344Z,3.53
2023-02-26T07:13:52.153Z,3.03
2023-02-26T07:16:19.030Z,2.80
2023-02-26T07:18:48.404Z,2.53
2023-02-26T07:21:17.660Z,3.33
2023-02-26T07:23:44.454Z,2.70
2023-02-26T07:26:13.584Z,3.47
2023-02-26T07:28:40.338Z,3.13
2023-02-26T07:31:07.281Z,3.97
2023-02-26T07:33:35.216Z,2.40
2023-02-26T07:36:02.216Z,3.33
2023-02-26T07:38:28.979Z,1.93
2023-02-26T07:40:58.176Z,2.77
2023-02-26T07:43:25.035Z,2.83
2023-02-26T07:45:54.667Z,3.07
2023-02-26T07:48:23.678Z,3.63
2023-02-26T07:50:52.765Z,3.13
2023-02-26T07:53:19.853Z,3.67
2023-02-26T07:55:46.874Z,3.33
2023-02-26T07:58:18.278Z,4.83
2023-02-26T08:00:45.293Z,3.03
2023-02-26T08:03:12.079Z,3.60
2023-02-26T08:05:38.864Z,4.27
2023-02-26T08:08:08.166Z,2.83
2023-02-26T08:10:34.946Z,2.47
2023-02-26T08:13:01.799Z,3.80
2023-02-26T08:15:28.571Z,4.93
2023-02-26T08:17:55.382Z,2.80
2023-02-26T08:20:22.223Z,3.70
2023-02-26T08:22:50.289Z,4.33
2023-02-26T08:25:17.173Z,2.43
2023-02-26T08:27:43.924Z,3.43
2023-02-26T08:30:15.059Z,3.10
2023-02-26T08:32:42.666Z,3.40
2023-02-26T08:35:10.239Z,4.87
2023-02-26T08:37:37.079Z,3.77
2023-02-26T08:40:08.519Z,3.83
2023-02-26T08:42:37.636Z,3.87
2023-02-26T08:45:04.929Z,3.50
2023-02-26T08:47:32.088Z,2.63
2023-02-26T08:49:59.902Z,2.43
2023-02-26T08:52:26.743Z,2.00
2023-02-26T08:54:53.685Z,2.37
2023-02-26T08:57:20.585Z,4.03
2023-02-26T08:59:47.349Z,2.43
2023-02-26T09:02:14.262Z,2.53
2023-02-26T09:04:41.055Z,2.07
2023-02-26T09:07:07.821Z,1.70
2023-02-26T09:09:35.034Z,3.23
2023-02-26T09:12:01.821Z,2.57
2023-02-26T09:14:28.741Z,1.87
2023-02-26T09:16:55.634Z,3.97
2023-02-26T09:19:24.724Z,3.23
2023-02-26T09:21:51.484Z,2.10
2023-02-26T09:24:20.682Z,2.50
2023-02-26T09:26:47.433Z,2.03
2023-02-26T09:29:16.732Z,3.90
2023-02-26T09:31:45.854Z,2.03
2023-02-26T09:34:15.024Z,1.83
2023-02-26T09:36:46.721Z,1.50
2023-02-26T09:39:13.492Z,1.30
2023-02-26T09:41:50.703Z,1.63
2023-02-26T09:44:33.009Z,1.50
2023-02-26T09:47:10.671Z,2.83
2023-02-26T09:49:46.596Z,2.20
2023-02-26T09:52:24.208Z,2.20
2023-02-26T09:55:05.202Z,2.20
2023-02-26T09:57:36.254Z,2.70
2023-02-26T10:00:22.360Z,3.90
2023-02-26T10:03:06.731Z,3.73
2023-02-26T10:05:51.678Z,3.53
2023-02-26T10:08:19.130Z,2.93
2023-02-26T10:11:00.335Z,3.60
2023-02-26T10:13:56.452Z,3.43
2023-02-26T10:16:27.335Z,2.87
2023-02-26T10:19:03.604Z,3.27
2023-02-26T10:21:37.141Z,2.60
2023-02-26T10:24:15.893Z,4.57
2023-02-26T10:26:52.823Z,3.63
2023-02-26T10:29:28.225Z,3.97
2023-02-26T10:32:06.130Z,6.90
2023-02-26T10:34:56.633Z,4.37
2023-02-26T10:37:56.101Z,2.97
2023-02-26T10:40:26.272Z,4.60
2023-02-26T10:43:27.752Z,4.57
2023-02-26T10:46:30.153Z,4.70
2023-02-26T10:49:23.614Z,4.00
2023-02-26T10:51:52.865Z,6.60
2023-02-26T10:54:22.001Z,5.60
2023-02-26T10:56:48.813Z,5.43
2023-02-26T10:59:16.830Z,4.90
2023-02-26T11:01:43.912Z,5.23
2023-02-26T11:04:18.130Z,6.80
2023-02-26T11:07:02.133Z,5.33
2023-02-26T11:09:31.680Z,3.80
2023-02-26T11:12:05.413Z,4.77
2023-02-26T11:14:33.047Z,4.17
2023-02-26T11:17:02.290Z,2.50
2023-02-26T11:19:35.738Z,3.93
2023-02-26T11:22:09.796Z,2.63
2023-02-26T11:24:40.744Z,4.30
2023-02-26T11:27:13.087Z,2.87
2023-02-26T11:29:41.428Z,3.33
2023-02-26T11:32:17.633Z,2.00
2023-02-26T11:34:51.331Z,3.53
2023-02-26T11:37:27.873Z,2.47
2023-02-26T11:40:01.303Z,4.57
2023-02-26T11:42:28.182Z,6.97
2023-02-26T11:44:55.040Z,2.00
2023-02-26T11:47:26.672Z,2.23
2023-02-26T11:50:01.011Z,4.17
2023-02-26T11:52:41.808Z,2.80
2023-02-26T11:55:36.884Z,3.03
2023-02-26T11:58:08.177Z,2.60
2023-02-26T12:00:39.317Z,2.40
2023-02-26T12:03:10.722Z,3.10
2023-02-26T12:05:37.529Z,5.27
2023-02-26T12:08:07.825Z,2.63
2023-02-26T12:10:49.649Z,5.87
2023-02-26T12:13:26.449Z,4.27
2023-02-26T12:16:22.003Z,4.20
2023-02-26T12:18:56.953Z,2.97
2023-02-26T12:21:25.184Z,5.37
2023-02-26T12:24:15.367Z,4.97
2023-02-26T12:27:13.033Z,7.37
2023-02-26T12:30:03.410Z,5.10
2023-02-26T12:32:52.082Z,4.53
2023-02-26T12:35:44.248Z,3.50
2023-02-26T12:38:23.134Z,3.90
2023-02-26T12:41:10.952Z,5.97
2023-02-26T12:43:53.409Z,6.97
2023-02-26T12:46:32.248Z,6.40
2023-02-26T12:49:05.318Z,5.20
2023-02-26T12:51:43.377Z,8.20
2023-02-26T12:54:13.021Z,4.33
2023-02-26T12:57:17.305Z,4.97
2023-02-26T13:00:05.144Z,4.70
2023-02-26T13:02:31.951Z,3.90
2023-02-26T13:05:13.788Z,4.17
2023-02-26T13:07:55.861Z,5.97
2023-02-26T13:10:53.249Z,4.00
2023-02-26T13:13:31.327Z,4.30
2023-02-26T13:16:19.690Z,5.60
2023-02-26T13:18:46.521Z,3.00
2023-02-26T13:21:22.748Z,3.47
2023-02-26T13:23:55.107Z,2.40
2023-02-26T13:26:22.560Z,3.50
2023-02-26T13:29:09.542Z,5.53
2023-02-26T13:31:43.939Z,3.53
2023-02-26T13:34:31.902Z,4.27
2023-02-26T13:36:58.667Z,2.90
2023-02-26T13:39:46.465Z,2.80
2023-02-26T13:42:21.474Z,2.87
2023-02-26T13:45:18.694Z,4.70
2023-02-26T13:48:16.092Z,4.87
2023-02-26T13:51:06.945Z,3.40
2023-02-26T13:53:43.870Z,4.37
2023-02-26T13:56:32.525Z,3.03
2023-02-26T13:59:16.906Z,4.13
2023-02-26T14:01:50.558Z,4.50
2023-02-26T14:04:22.362Z,4.20
2023-02-26T14:06:49.872Z,4.67
2023-02-26T14:09:22.720Z,3.93
2023-02-26T14:11:55.611Z,8.93
2023-02-26T14:14:22.365Z,4.93
2023-02-26T14:16:55.334Z,6.53
2023-02-26T14:19:43.685Z,8.13
2023-02-26T14:22:28.793Z,7.27
2023-02-26T14:25:02.924Z,3.53
2023-02-26T14:27:40.901Z,5.20
2023-02-26T14:30:10.705Z,2.93
2023-02-26T14:32:56.273Z,5.07
2023-02-26T14:35:29.183Z,4.07
2023-02-26T14:38:01.754Z,4.13
2023-02-26T14:40:32.488Z,4.63
2023-02-26T14:43:03.892Z,4.50
2023-02-26T14:45:37.363Z,3.73
2023-02-26T14:48:12.180Z,4.40
2023-02-26T14:50:54.025Z,5.10
2023-02-26T14:53:49.367Z,6.40
2023-02-26T14:56:37.354Z,3.90
2023-02-26T14:59:19.292Z,5.90
2023-02-26T15:02:19.595Z,6.20
2023-02-26T15:05:19.476Z,6.60
2023-02-26T15:08:27.903Z,5.07
2023-02-26T15:10:54.654Z,7.13
2023-02-26T15:13:33.361Z,7.10
2023-02-26T15:16:26.167Z,5.80
2023-02-26T15:18:56.597Z,4.90
2023-02-26T15:21:26.534Z,5.83
2023-02-26T15:23:59.532Z,7.97
2023-02-26T15:26:37.401Z,7.83
2023-02-26T15:29:08.397Z,6.77
2023-02-26T15:31:41.472Z,7.67
2023-02-26T15:34:12.695Z,7.70
2023-02-26T15:36:43.124Z,6.63
2023-02-26T15:39:13.487Z,6.00
2023-02-26T15:41:40.328Z,6.53
2023-02-26T15:44:11.209Z,7.27
2023-02-26T15:46:45.241Z,8.10
2023-02-26T15:49:23.721Z,5.13
2023-02-26T15:51:51.578Z,5.93
2023-02-26T15:54:22.900Z,6.60
2023-02-26T15:56:49.765Z,5.43
2023-02-26T15:59:41.969Z,6.63
2023-02-26T16:02:18.887Z,5.70
2023-02-26T16:04:45.780Z,8.37
2023-02-26T16:07:12.809Z,7.07
2023-02-26T16:09:41.475Z,6.33
2023-02-26T16:12:16.275Z,6.97
2023-02-26T16:14:45.579Z,6.63
2023-02-26T16:17:18.657Z,9.27
2023-02-26T16:19:46.589Z,4.50
2023-02-26T16:22:20.724Z,7.47
2023-02-26T16:24:49.518Z,5.77
2023-02-26T16:27:16.326Z,6.77
2023-02-26T16:29:53.232Z,8.27
2023-02-26T16:32:24.652Z,4.67
2023-02-26T16:34:59.858Z,6.40
2023-02-26T16:37:30.030Z,6.13
2023-02-26T16:40:20.148Z,6.83
2023-02-26T16:43:23.556Z,6.47
2023-02-26T16:45:57.443Z,5.33
2023-02-26T16:48:29.437Z,10.43
2023-02-26T16:51:01.485Z,7.43
2023-02-26T16:53:45.978Z,8.10
2023-02-26T16:56:18.255Z,10.37
2023-02-26T16:58:46.024Z,7.30
2023-02-26T17:01:15.065Z,7.83
2023-02-26T17:03:48.962Z,8.47
2023-02-26T17:06:17.657Z,6.30
2023-02-26T17:08:49.591Z,10.27
2023-02-26T17:11:37.041Z,7.93
2023-02-26T17:14:19.119Z,9.03
2023-02-26T17:16:47.260Z,7.57
2023-02-26T17:19:14.230Z,14.93
2023-02-26T17:21:55.037Z,8.43
2023-02-26T17:24:26.858Z,12.30
2023-02-26T17:26:55.244Z,7.90
2023-02-26T17:29:37.266Z,8.87
2023-02-26T17:32:06.032Z,7.47
2023-02-26T17:34:35.458Z,10.70
2023-02-26T17:37:07.826Z,10.07
2023-02-26T17:39:34.737Z,12.40
2023-02-26T17:42:04.175Z,11.87
2023-02-26T17:44:31.022Z,8.97
2023-02-26T17:46:59.939Z,12.23
2023-02-26T17:49:26.684Z,13.07
2023-02-26T17:51:55.712Z,14.03
2023-02-26T17:54:22.506Z,12.37
2023-02-26T17:56:49.890Z,13.57
2023-02-26T17:59:16.683Z,12.70
2023-02-26T18:01:43.555Z,12.50
2023-02-26T18:04:10.514Z,12.53
2023-02-26T18:06:39.650Z,10.87
2023-02-26T18:09:06.585Z,10.77
2023-02-26T18:11:33.625Z,12.90
2023-02-26T18:14:02.802Z,15.73
2023-02-26T18:16:33.339Z,10.77
2023-02-26T18:19:00.752Z,12.40
2023-02-26T18:21:27.877Z,12.57
2023-02-26T18:23:57.673Z,11.03
2023-02-26T18:26:27.641Z,11.87
2023-02-26T18:28:56.776Z,11.40
2023-02-26T18:31:33.542Z,11.73
2023-02-26T18:34:03.697Z,17.27
2023-02-26T18:36:35.657Z,12.00
2023-02-26T18:39:06.350Z,11.67
2023-02-26T18:41:33.293Z,11.70
2023-02-26T18:44:02.596Z,14.90
2023-02-26T18:46:30.308Z,11.57
2023-02-26T18:48:57.204Z,10.13
2023-02-26T18:51:24.089Z,11.53
2023-02-26T18:53:51.171Z,11.60
2023-02-26T18:56:17.986Z,8.30
2023-02-26T18:58:44.767Z,10.80
2023-02-26T19:01:13.687Z,9.43
2023-02-26T19:03:40.463Z,9.80
2023-02-26T19:06:12.504Z,13.67
2023-02-26T19:08:39.335Z,11.23
2023-02-26T19:11:08.577Z,11.87
2023-02-26T19:13:37.569Z,8.77
2023-02-26T19:16:07.512Z,9.03
2023-02-26T19:18:34.388Z,9.03
2023-02-26T19:21:05.881Z,10.87
2023-02-26T19:23:35.090Z,11.13
2023-02-26T19:26:05.451Z,10.70
2023-02-26T19:28:37.284Z,10.70
2023-02-26T19:31:06.075Z,13.57
2023-02-26T19:33:33.102Z,10.47
2023-02-26T19:36:00.108Z,12.80
2023-02-26T19:38:28.277Z,9.53
2023-02-26T19:40:55.064Z,11.93
2023-02-26T19:43:23.410Z,11.13
2023-02-26T19:45:52.917Z,12.77
2023-02-26T19:48:21.176Z,8.10
2023-02-26T19:50:52.557Z,7.97
2023-02-26T19:53:23.970Z,11.43
2023-02-26T19:55:50.946Z,8.23
2023-02-26T19:58:19.615Z,10.00
2023-02-26T20:00:48.681Z,7.67
2023-02-26T20:03:17.583Z,10.07
2023-02-26T20:05:47.909Z,6.80
2023-02-26T20:08:14.660Z,7.37
2023-02-26T20:10:41.718Z,6.17
2023-02-26T20:13:08.561Z,7.73
2023-02-26T20:15:37.871Z,5.63
2023-02-26T20:18:04.756Z,7.07
2023-02-26T20:20:34.321Z,5.83
2023-02-26T20:23:01.433Z,10.37
2023-02-26T20:25:30.697Z,5.93
2023-02-26T20:27:57.512Z,5.53
2023-02-26T20:30:24.339Z,6.53
2023-02-26T20:32:55.949Z,6.17
2023-02-26T20:35:22.922Z,8.53
2023-02-26T20:37:54.352Z,6.23
2023-02-26T20:40:21.138Z,6.73
2023-02-26T20:42:48.014Z,11.87
2023-02-26T20:45:14.756Z,8.40
2023-02-26T20:47:42.074Z,7.33
2023-02-26T20:50:09.702Z,7.13
2023-02-26T20:52:36.599Z,4.63
2023-02-26T20:55:04.056Z,5.93
2023-02-26T20:57:32.514Z,7.33
2023-02-26T21:00:10.038Z,6.27
2023-02-26T21:02:37.973Z,4.70
2023-02-26T21:05:05.385Z,9.07
2023-02-26T21:07:32.364Z,5.93
2023-02-26T21:10:01.317Z,5.70
2023-02-26T21:12:30.972Z,6.53
2023-02-26T21:14:57.815Z,5.77
2023-02-26T21:17:27.019Z,6.33
2023-02-26T21:19:54.136Z,9.70
2023-02-26T21:22:21.172Z,7.37
2023-02-26T21:24:47.951Z,8.67
2023-02-26T21:27:16.692Z,7.27
2023-02-26T21:29:46.012Z,6.53
2023-02-26T21:32:15.032Z,11.10
2023-02-26T21:34:44.200Z,9.63
2023-02-26T21:37:11.670Z,10.47
2023-02-26T21:39:41.098Z,8.77
2023-02-26T21:42:13.448Z,7.50
2023-02-26T21:44:40.242Z,8.77
2023-02-26T21:47:12.060Z,9.27
2023-02-26T21:49:39.735Z,10.53
2023-02-26T21:52:06.934Z,7.00
2023-02-26T21:54:33.917Z,8.20
2023-02-26T21:57:03.049Z,11.27
2023-02-26T21:59:29.901Z,13.07
2023-02-26T22:01:56.832Z,13.47
2023-02-26T22:04:23.718Z,10.90
2023-02-26T22:06:50.544Z,8.80
2023-02-26T22:09:19.205Z,7.30
2023-02-26T22:11:49.008Z,12.70
2023-02-26T22:14:16.037Z,7.30
2023-02-26T22:16:43.035Z,10.13
2023-02-26T22:19:09.944Z,8.57
2023-02-26T22:21:36.748Z,10.43
2023-02-26T22:24:06.392Z,9.70
2023-02-26T22:26:33.308Z,11.87
2023-02-26T22:29:00.833Z,10.57
2023-02-26T22:31:33.571Z,9.30
2023-02-26T22:34:00.473Z,9.57
2023-02-26T22:36:31.352Z,10.43
2023-02-26T22:38:58.509Z,10.47
2023-02-26T22:41:25.292Z,11.80
2023-02-26T22:43:56.673Z,8.70
2023-02-26T22:46:25.453Z,11.03
2023-02-26T22:48:57.111Z,13.43
2023-02-26T22:51:24.146Z,9.87
2023-02-26T22:53:51.009Z,13.20
2023-02-26T22:56:17.844Z,14.43
2023-02-26T22:58:45.075Z,14.40
2023-02-26T23:01:11.886Z,13.87
2023-02-26T23:03:38.644Z,11.37
2023-02-26T23:06:05.842Z,12.93
2023-02-26T23:08:32.715Z,11.17
2023-02-26T23:11:00.322Z,11.70
2023-02-26T23:13:27.570Z,14.20
2023-02-26T23:15:54.394Z,12.63
2023-02-26T23:18:21.433Z,10.10
2023-02-26T23:20:50.682Z,13.40
2023-02-26T23:23:17.471Z,12.60
2023-02-26T23:25:46.920Z,8.50
2023-02-26T23:28:13.692Z,13.53
2023-02-26T23:30:40.713Z,7.97
2023-02-26T23:33:08.079Z,9.07
2023-02-26T23:35:35.227Z,5.97
2023-02-26T23:38:02.364Z,7.17
2023-02-26T23:40:31.681Z,7.77
2023-02-26T23:42:58.615Z,6.40
2023-02-26T23:45:25.427Z,8.30
2023-02-26T23:47:52.253Z,8.67
2023-02-26T23:50:21.524Z,9.60
2023-02-26T23:52:50.551Z,11.33
2023-02-26T23:55:19.780Z,9.57
2023-02-26T23:57:49.063Z,10.77
